Time;durP1;ratioP1;P1;durP2;ratioP2;P2;SDS_P1;SDS_P2;PMS_P1;PMS_P2;Temp;Humidity;BMP_temperature;BMP_pressure;BME280_temperature;BME280_humidity;BME280_pressure;Samples;Min_cycle;Max_cycle;Signal;HPM_P1;HPM_P2
2023/10/15 00:00:24;;;;;;;8.75;4.00;;;;;;;16.38;100.00;99846.00;5588034;31;34523;-68
2023/10/15 00:03:28;;;;;;;4.72;3.03;;;;;;;16.19;100.00;99853.16;5588050;31;35739;-69
2023/10/15 00:06:31;;;;;;;6.75;2.72;;;;;;;16.16;100.00;99858.97;5587934;31;35245;-69
2023/10/15 00:09:34;;;;;;;5.47;2.50;;;;;;;16.18;100.00;99862.22;5588205;31;35124;-69
2023/10/15 00:12:38;;;;;;;6.22;2.40;;;;;;;16.04;100.00;99869.53;5587917;31;34502;-70
2023/10/15 00:15:42;;;;;;;5.97;2.25;;;;;;;15.97;100.00;99879.47;5587892;31;35009;-69
2023/10/15 00:18:45;;;;;;;6.22;2.40;;;;;;;15.88;100.00;99880.72;5573963;31;34388;-68
2023/10/15 00:21:48;;;;;;;5.12;2.00;;;;;;;15.84;100.00;99878.69;5573974;31;34412;-69
2023/10/15 00:24:50;;;;;;;4.47;2.20;;;;;;;15.87;100.00;99884.44;5587575;31;34308;-69
2023/10/15 00:27:57;;;;;;;5.00;2.05;;;;;;;15.88;100.00;99888.75;5587983;31;35125;-68
2023/10/15 00:31:00;;;;;;;4.15;2.03;;;;;;;15.87;100.00;99894.31;5587809;31;33885;-68
2023/10/15 00:34:04;;;;;;;3.75;1.80;;;;;;;15.89;100.00;99910.97;5587534;31;35119;-68
2023/10/15 00:37:07;;;;;;;4.45;1.80;;;;;;;15.91;100.00;99925.78;5573769;31;34357;-69
2023/10/15 00:40:16;;;;;;;3.37;1.70;;;;;;;15.83;100.00;99934.03;5587427;31;35064;-69
2023/10/15 00:43:19;;;;;;;3.85;1.70;;;;;;;15.64;100.00;99937.59;5587344;31;34417;-71
2023/10/15 00:46:24;;;;;;;2.85;1.58;;;;;;;15.44;100.00;99948.34;5586950;31;35182;-72
2023/10/15 00:49:27;;;;;;;2.95;1.50;;;;;;;15.08;100.00;99943.47;5587233;31;35774;-72
2023/10/15 00:52:30;;;;;;;2.10;1.35;;;;;;;14.80;100.00;99942.88;5573559;31;35349;-72
2023/10/15 00:55:35;;;;;;;3.25;1.62;;;;;;;14.72;100.00;99924.37;5587197;31;34911;-73
2023/10/15 01:05:00;;;;;;;5.30;1.75;;;;;;;14.28;100.00;99932.97;5589955;31;34377;-72
2023/10/15 01:08:05;;;;;;;4.30;1.95;;;;;;;14.12;100.00;99947.47;5589796;31;35128;-71
2023/10/15 01:11:14;;;;;;;4.03;1.62;;;;;;;14.04;100.00;99952.97;5590225;31;34303;-70
2023/10/15 01:17:37;;;;;;;4.40;1.70;;;;;;;13.89;100.00;99950.47;5589720;31;35022;-69
2023/10/15 01:20:42;;;;;;;2.67;1.40;;;;;;;13.98;100.00;99964.47;5590005;31;35156;-71
2023/10/15 01:23:54;;;;;;;3.17;1.45;;;;;;;14.19;100.00;99972.31;5589726;31;34325;-70
2023/10/15 01:27:00;;;;;;;1.87;1.30;;;;;;;14.14;100.00;99947.25;5589679;31;35361;-69
2023/10/15 01:30:04;;;;;;;3.58;1.40;;;;;;;14.05;100.00;99951.97;5589848;31;34330;-68
2023/10/15 01:33:10;;;;;;;2.35;1.05;;;;;;;13.96;100.00;99931.00;5589635;31;34457;-68
2023/10/15 01:36:21;;;;;;;2.67;1.10;;;;;;;13.88;100.00;99927.50;5589659;31;34465;-69
2023/10/15 01:39:38;;;;;;;1.87;0.95;;;;;;;13.87;100.00;99925.03;5589816;31;32982;-70
2023/10/15 01:42:42;;;;;;;3.05;1.10;;;;;;;13.83;100.00;99918.47;5589599;31;35055;-70
2023/10/15 01:45:47;;;;;;;4.70;1.00;;;;;;;13.79;100.00;99918.06;5589519;31;34991;-70
2023/10/15 01:48:50;;;;;;;1.20;0.85;;;;;;;13.71;100.00;99933.37;5589523;31;34477;-70
2023/10/15 01:51:55;;;;;;;2.37;1.00;;;;;;;13.74;100.00;99936.50;5575720;31;34401;-70
2023/10/15 01:55:03;;;;;;;3.92;0.93;;;;;;;13.67;100.00;99961.44;5589387;31;35378;-70
2023/10/15 01:58:11;;;;;;;1.48;0.85;;;;;;;13.60;100.00;99958.78;5589639;31;34336;-70
2023/10/15 02:01:31;;;;;;;1.67;0.80;;;;;;;13.65;100.00;99968.84;5589432;31;34522;-70
2023/10/15 02:04:42;;;;;;;2.23;1.00;;;;;;;13.55;100.00;99977.19;5589554;31;34334;-70
2023/10/15 02:07:45;;;;;;;1.62;1.00;;;;;;;13.48;100.00;99971.00;5589490;31;33961;-70
2023/10/15 02:10:48;;;;;;;4.40;1.10;;;;;;;13.47;100.00;99967.50;5589276;31;34274;-70
2023/10/15 02:13:51;;;;;;;3.97;1.00;;;;;;;13.40;100.00;99973.81;5589360;31;34509;-70
2023/10/15 02:16:55;;;;;;;1.42;1.00;;;;;;;13.45;100.00;99985.53;5589423;31;34447;-69
2023/10/15 02:19:58;;;;;;;2.15;0.90;;;;;;;13.42;100.00;99988.59;5575558;31;35434;-69
2023/10/15 02:23:02;;;;;;;1.42;0.70;;;;;;;13.42;100.00;99985.09;5589375;31;34302;-70
2023/10/15 02:26:04;;;;;;;2.92;1.20;;;;;;;13.42;100.00;99967.25;5575427;31;34340;-70
2023/10/15 02:29:22;;;;;;;1.98;1.00;;;;;;;13.45;100.00;99968.72;5589237;31;34224;-70
2023/10/15 02:35:32;;;;;;;2.35;0.95;;;;;;;13.43;100.00;99954.78;5589331;31;34436;-71
2023/10/15 02:38:48;;;;;;;2.30;1.20;;;;;;;13.41;100.00;99949.63;5589297;31;34297;-69
2023/10/15 02:41:52;;;;;;;2.15;1.20;;;;;;;13.34;100.00;99954.13;5589173;31;35350;-69
2023/10/15 02:44:57;;;;;;;4.18;1.23;;;;;;;13.34;100.00;99961.28;5589182;31;34431;-69
2023/10/15 02:48:09;;;;;;;4.12;1.10;;;;;;;13.34;100.00;99970.09;5588919;31;34367;-69
2023/10/15 02:51:14;;;;;;;3.67;1.23;;;;;;;13.37;100.00;99972.34;5589465;31;34220;-69
2023/10/15 02:54:27;;;;;;;3.05;1.30;;;;;;;13.36;100.00;99985.91;5588899;31;34458;-69
2023/10/15 02:57:30;;;;;;;2.15;1.37;;;;;;;13.33;100.00;99979.09;5588969;31;34231;-68
2023/10/15 03:00:34;;;;;;;2.60;1.30;;;;;;;13.31;100.00;99991.78;5588916;31;35003;-69
2023/10/15 03:03:37;;;;;;;2.70;1.40;;;;;;;13.27;100.00;99998.53;5588912;31;34262;-68
2023/10/15 03:06:42;;;;;;;1.92;1.30;;;;;;;13.32;100.00;100003.25;5588856;31;34537;-69
2023/10/15 03:09:48;;;;;;;2.67;1.50;;;;;;;13.28;100.00;99996.69;5575509;31;34287;-69
2023/10/15 03:12:52;;;;;;;2.15;1.37;;;;;;;13.26;100.00;100012.06;5575182;31;34309;-69
2023/10/15 03:15:57;;;;;;;2.83;1.58;;;;;;;13.28;100.00;100018.00;5588785;31;34410;-69
2023/10/15 03:19:24;;;;;;;5.82;1.58;;;;;;;13.25;100.00;100032.53;5588806;31;34394;-69
2023/10/15 03:22:30;;;;;;;2.45;1.52;;;;;;;13.21;100.00;100007.31;5588038;31;34455;-69
2023/10/15 03:25:34;;;;;;;2.42;1.73;;;;;;;13.21;100.00;99993.16;5588528;31;34345;-69
2023/10/15 03:28:44;;;;;;;2.08;1.70;;;;;;;13.15;100.00;99992.09;5588663;31;34367;-70
2023/10/15 03:31:54;;;;;;;3.90;1.65;;;;;;;13.12;100.00;99984.47;5588696;31;35588;-70
2023/10/15 03:35:04;;;;;;;5.50;1.73;;;;;;;13.13;100.00;99985.31;5588698;31;34259;-68
2023/10/15 03:38:23;;;;;;;2.40;1.80;;;;;;;13.08;100.00;99978.69;5588890;31;34991;-68
2023/10/15 03:41:30;;;;;;;5.40;2.00;;;;;;;13.02;100.00;99968.81;5574724;31;35084;-69
2023/10/15 03:44:35;;;;;;;4.25;1.80;;;;;;;13.03;100.00;99972.28;5588434;31;34365;-69
2023/10/15 03:47:39;;;;;;;1.95;1.55;;;;;;;12.97;100.00;99975.75;5588173;31;34354;-68
2023/10/15 03:50:53;;;;;;;2.25;1.65;;;;;;;12.92;100.00;99997.62;5588394;31;34479;-68
2023/10/15 03:54:06;;;;;;;3.55;1.77;;;;;;;12.88;100.00;99991.00;5588618;31;34257;-69
2023/10/15 03:57:09;;;;;;;4.53;1.60;;;;;;;12.88;100.00;99990.19;5588137;31;34290;-67
2023/10/15 04:00:26;;;;;;;3.87;1.90;;;;;;;12.79;100.00;99991.34;5588111;31;34385;-69
2023/10/15 04:03:29;;;;;;;3.25;1.55;;;;;;;12.77;100.00;99983.56;5587900;31;34090;-68
2023/10/15 04:06:34;;;;;;;5.55;1.77;;;;;;;12.73;100.00;99971.63;5587785;31;34450;-67
2023/10/15 04:09:38;;;;;;;5.55;1.83;;;;;;;12.73;100.00;99965.50;5587895;31;34023;-68
2023/10/15 04:12:43;;;;;;;4.05;1.60;;;;;;;12.73;100.00;99979.63;5574163;31;34385;-68
2023/10/15 04:15:47;;;;;;;5.93;1.90;;;;;;;12.77;100.00;99966.78;5587810;31;34519;-67
2023/10/15 04:18:50;;;;;;;4.00;1.70;;;;;;;12.77;100.00;99961.44;5587697;31;34586;-67
2023/10/15 04:21:59;;;;;;;2.53;1.60;;;;;;;12.76;100.00;99952.63;5587667;31;34436;-67
2023/10/15 04:25:06;;;;;;;3.03;1.45;;;;;;;12.78;100.00;99960.44;5573863;31;34932;-67
2023/10/15 04:28:14;;;;;;;7.22;1.60;;;;;;;12.75;100.00;99958.13;5587575;31;35368;-67
2023/10/15 04:31:22;;;;;;;2.60;1.55;;;;;;;12.74;100.00;99956.50;5587565;31;34321;-68
2023/10/15 04:34:29;;;;;;;7.10;1.77;;;;;;;12.71;100.00;99959.53;5588710;31;34457;-67
2023/10/15 04:37:36;;;;;;;3.90;1.70;;;;;;;12.73;100.00;99968.97;5590252;31;34249;-68
2023/10/15 04:44:03;;;;;;;3.90;1.70;;;;;;;12.80;100.00;100008.97;5590220;31;34313;-68
2023/10/15 04:47:09;;;;;;;4.85;1.65;;;;;;;12.74;100.00;100005.22;5589899;31;34990;-68
2023/10/15 04:50:17;;;;;;;4.45;1.70;;;;;;;12.75;100.00;100003.37;5590017;31;34351;-68
2023/10/15 04:56:23;;;;;;;6.18;2.12;;;;;;;12.59;100.00;99997.31;5589890;31;34361;-68
2023/10/15 04:59:26;;;;;;;3.58;1.60;;;;;;;12.59;100.00;100007.13;5590007;31;34509;-68
2023/10/15 05:02:29;;;;;;;5.75;2.12;;;;;;;12.54;100.00;100009.53;5589921;31;34500;-67
2023/10/15 05:05:33;;;;;;;5.97;1.62;;;;;;;12.46;100.00;100010.47;5589832;31;34355;-67
2023/10/15 05:08:35;;;;;;;6.85;2.00;;;;;;;12.43;100.00;100015.38;5589852;31;34881;-68
2023/10/15 05:11:38;;;;;;;6.22;1.80;;;;;;;12.42;100.00;100035.81;5589847;31;34348;-68
2023/10/15 05:14:41;;;;;;;6.37;1.95;;;;;;;12.41;100.00;100059.94;5576097;31;34410;-68
2023/10/15 05:17:47;;;;;;;6.47;1.75;;;;;;;12.43;100.00;100085.38;5590079;31;35007;-68
2023/10/15 05:20:50;;;;;;;7.40;2.10;;;;;;;12.39;100.00;100085.94;5576405;31;33273;-67
2023/10/15 05:23:54;;;;;;;6.03;1.80;;;;;;;12.29;100.00;100082.72;5590037;31;35059;-68
2023/10/15 05:26:56;;;;;;;4.20;1.62;;;;;;;12.32;100.00;100072.53;5576087;31;34972;-68
2023/10/15 05:29:59;;;;;;;4.70;1.80;;;;;;;12.29;100.00;100058.78;5589739;31;34417;-67
2023/10/15 05:33:02;;;;;;;5.87;1.92;;;;;;;12.19;100.00;100051.94;5589609;31;34976;-68
2023/10/15 05:36:06;;;;;;;5.45;2.08;;;;;;;12.29;100.00;100053.47;5589753;31;35101;-69
2023/10/15 05:39:09;;;;;;;6.03;1.60;;;;;;;12.23;100.00;100052.38;5589789;31;34984;-68
2023/10/15 05:42:12;;;;;;;7.00;1.90;;;;;;;12.22;100.00;100053.38;5589612;31;34349;-68
2023/10/15 05:45:15;;;;;;;6.70;1.80;;;;;;;12.13;100.00;100059.81;5589572;31;34402;-68
2023/10/15 05:48:19;;;;;;;5.95;1.90;;;;;;;12.12;100.00;100066.97;5589257;31;34565;-68
2023/10/15 05:51:21;;;;;;;10.45;2.37;;;;;;;12.09;100.00;100079.81;5589577;31;35095;-69
2023/10/15 05:54:24;;;;;;;5.37;1.98;;;;;;;12.08;100.00;100086.12;5589461;31;35079;-69
2023/10/15 05:57:28;;;;;;;5.65;1.80;;;;;;;12.12;100.00;100084.75;5589594;31;34367;-69
2023/10/15 06:00:37;;;;;;;9.77;2.45;;;;;;;12.01;100.00;100098.50;5589234;31;34283;-69
2023/10/15 06:03:40;;;;;;;5.53;2.05;;;;;;;12.01;100.00;100106.47;5589633;31;35027;-69
2023/10/15 06:06:43;;;;;;;5.50;2.40;;;;;;;11.85;100.00;100098.72;5589444;31;34308;-68
2023/10/15 06:09:46;;;;;;;7.22;2.35;;;;;;;11.83;100.00;100120.12;5589512;31;35326;-69
2023/10/15 06:12:49;;;;;;;5.78;2.17;;;;;;;11.80;100.00;100131.16;5589329;31;34265;-68
2023/10/15 06:15:52;;;;;;;7.55;2.67;;;;;;;11.80;100.00;100117.03;5575899;31;35027;-68
2023/10/15 06:18:57;;;;;;;7.97;2.60;;;;;;;11.84;100.00;100142.22;5589351;31;34396;-69
2023/10/15 06:22:03;;;;;;;9.73;2.50;;;;;;;11.75;100.00;100139.66;5575160;31;34380;-69
2023/10/15 06:25:08;;;;;;;9.10;2.37;;;;;;;11.80;100.00;100148.94;5589148;31;34300;-69
2023/10/15 06:28:14;;;;;;;7.55;2.40;;;;;;;11.79;100.00;100147.25;5588957;31;34261;-69
2023/10/15 06:31:17;;;;;;;7.90;2.25;;;;;;;11.78;100.00;100143.78;5589097;31;35082;-70
2023/10/15 06:34:20;;;;;;;8.55;2.35;;;;;;;11.66;100.00;100146.03;5589153;31;34448;-69
2023/10/15 06:37:22;;;;;;;10.38;2.67;;;;;;;11.41;100.00;100141.09;5588989;31;34587;-70
2023/10/15 06:40:26;;;;;;;7.28;2.45;;;;;;;11.21;100.00;100136.28;5589246;31;34307;-70
2023/10/15 06:43:30;;;;;;;9.73;2.30;;;;;;;11.10;100.00;100134.03;5589221;31;34269;-70
2023/10/15 06:46:33;;;;;;;7.78;2.25;;;;;;;11.04;100.00;100129.44;5588927;31;35024;-71
2023/10/15 06:49:36;;;;;;;8.55;2.30;;;;;;;11.01;100.00;100139.56;5575393;31;34579;-70
2023/10/15 06:52:40;;;;;;;7.85;2.67;;;;;;;10.95;100.00;100135.78;5589044;31;35008;-69
2023/10/15 06:55:45;;;;;;;9.10;3.08;;;;;;;10.88;100.00;100118.94;5588321;31;34309;-70
2023/10/15 06:58:49;;;;;;;9.30;2.75;;;;;;;10.83;100.00;100124.78;5588720;31;34490;-70
2023/10/15 07:01:51;;;;;;;9.80;2.70;;;;;;;10.80;100.00;100111.00;5588990;31;34344;-69
2023/10/15 07:04:56;;;;;;;7.90;2.35;;;;;;;10.78;100.00;100107.72;5547594;31;328827;-69
2023/10/15 07:08:00;;;;;;;9.90;2.90;;;;;;;10.81;100.00;100110.00;5589290;31;34118;-70
2023/10/15 07:11:05;;;;;;;10.02;2.40;;;;;;;10.77;100.00;100114.03;5589472;31;34694;-69
2023/10/15 07:14:08;;;;;;;10.32;2.60;;;;;;;10.78;100.00;100113.84;5589153;31;32972;-69
2023/10/15 07:17:11;;;;;;;8.63;2.35;;;;;;;10.82;100.00;100090.44;5588873;31;34905;-68
2023/10/15 07:20:14;;;;;;;11.40;3.10;;;;;;;10.79;100.00;100077.53;5574946;31;34721;-69
2023/10/15 07:23:18;;;;;;;9.52;2.62;;;;;;;10.78;100.00;100083.84;5588608;31;34913;-68
2023/10/15 07:26:21;;;;;;;11.05;2.70;;;;;;;10.79;100.00;100096.94;5588582;31;35233;-69
2023/10/15 07:29:24;;;;;;;11.65;2.78;;;;;;;10.83;100.00;100126.59;5574826;31;34750;-68
2023/10/15 07:32:27;;;;;;;9.50;2.50;;;;;;;10.85;100.00;100151.12;5588607;31;34077;-68
2023/10/15 07:35:30;;;;;;;8.35;2.50;;;;;;;10.83;100.00;100169.06;5574955;31;34226;-68
2023/10/15 07:38:36;;;;;;;6.60;2.33;;;;;;;10.81;100.00;100176.34;5588680;31;34081;-67
2023/10/15 07:41:39;;;;;;;8.75;2.55;;;;;;;10.89;100.00;100177.13;5575253;31;34821;-67
2023/10/15 07:44:42;;;;;;;8.80;2.20;;;;;;;11.00;100.00;100186.53;5588514;31;34221;-67
2023/10/15 07:47:45;;;;;;;5.35;2.25;;;;;;;11.18;100.00;100191.56;5588403;31;34429;-67
2023/10/15 07:50:48;;;;;;;7.97;2.45;;;;;;;11.32;100.00;100198.78;5588536;31;34038;-67
2023/10/15 07:53:52;;;;;;;11.85;2.30;;;;;;;11.43;100.00;100208.97;5588144;31;35161;-68
2023/10/15 07:56:55;;;;;;;6.62;1.95;;;;;;;11.49;100.00;100195.00;5574535;31;34333;-68
2023/10/15 07:59:58;;;;;;;10.10;2.67;;;;;;;11.59;100.00;100197.41;5588601;31;34302;-67
2023/10/15 08:03:02;;;;;;;9.80;2.47;;;;;;;11.70;100.00;100184.53;5588114;31;35697;-68
2023/10/15 08:06:07;;;;;;;11.70;2.55;;;;;;;11.80;100.00;100165.69;5587980;31;34242;-68
2023/10/15 08:09:13;;;;;;;9.10;2.15;;;;;;;11.88;100.00;100176.25;5589502;31;34144;-67
2023/10/15 08:12:17;;;;;;;11.07;2.47;;;;;;;11.81;100.00;100177.16;5590567;31;35053;-68
2023/10/15 08:15:20;;;;;;;8.63;2.33;;;;;;;11.85;100.00;100165.97;5590547;31;34289;-68
2023/10/15 08:18:24;;;;;;;7.22;2.22;;;;;;;11.91;100.00;100159.13;5590536;31;34139;-68
2023/10/15 08:21:27;;;;;;;7.25;2.10;;;;;;;12.00;100.00;100168.66;5590373;31;34222;-69
2023/10/15 08:24:30;;;;;;;10.85;2.20;;;;;;;11.97;100.00;100177.81;5590364;31;34636;-67
2023/10/15 08:27:33;;;;;;;10.05;2.20;;;;;;;12.05;100.00;100177.72;5590344;31;34941;-67
2023/10/15 08:30:37;;;;;;;7.68;2.55;;;;;;;12.18;100.00;100175.28;5589845;31;34966;-67
2023/10/15 08:33:40;;;;;;;9.68;2.10;;;;;;;12.27;100.00;100168.03;5590037;31;34879;-67
2023/10/15 08:36:50;;;;;;;6.45;2.05;;;;;;;12.23;100.00;100158.75;5590030;31;34217;-67
2023/10/15 08:39:52;;;;;;;8.68;2.30;;;;;;;12.10;100.00;100159.37;5589740;31;34328;-67
2023/10/15 08:43:13;;;;;;;6.20;2.10;;;;;;;12.20;100.00;100165.25;5589887;31;34335;-66
2023/10/15 08:46:22;;;;;;;7.22;2.10;;;;;;;12.04;100.00;100167.28;5589880;31;35021;-69
2023/10/15 08:49:30;;;;;;;6.90;1.90;;;;;;;12.16;100.00;100161.31;5590466;31;34530;-67
2023/10/15 08:52:34;;;;;;;7.03;2.17;;;;;;;12.04;100.00;100170.78;5576272;31;34379;-68
2023/10/15 08:55:38;;;;;;;6.80;1.98;;;;;;;12.14;100.00;100178.47;5590081;31;34366;-68
2023/10/15 08:58:42;;;;;;;9.73;2.20;;;;;;;12.17;100.00;100186.09;5576230;31;35262;-68
2023/10/15 09:01:46;;;;;;;9.38;2.00;;;;;;;12.20;100.00;100180.38;5590055;31;33886;-69
2023/10/15 09:04:48;;;;;;;6.68;2.10;;;;;;;12.27;100.00;100183.16;5590145;31;34903;-68
2023/10/15 09:07:55;;;;;;;8.80;2.05;;;;;;;12.39;100.00;100176.37;5589969;31;34908;-68
2023/10/15 09:10:57;;;;;;;6.37;1.70;;;;;;;12.31;100.00;100173.78;5589942;31;34160;-67
2023/10/15 09:14:02;;;;;;;7.35;2.22;;;;;;;12.20;100.00;100169.75;5575981;31;34173;-67
2023/10/15 09:17:09;;;;;;;5.60;1.98;;;;;;;12.35;100.00;100167.09;5589628;31;34458;-68
2023/10/15 09:20:17;;;;;;;9.63;2.17;;;;;;;12.50;100.00;100170.56;5589130;31;34232;-68
2023/10/15 09:23:24;;;;;;;7.90;1.77;;;;;;;12.47;100.00;100176.28;5576069;31;35051;-67
2023/10/15 09:26:30;;;;;;;11.90;2.67;;;;;;;12.39;100.00;100155.09;5589761;31;34322;-67
2023/10/15 09:29:33;;;;;;;11.45;2.30;;;;;;;12.55;100.00;100162.84;5589854;31;34367;-67
2023/10/15 09:32:36;;;;;;;6.05;2.00;;;;;;;12.58;100.00;100147.38;5589703;31;35098;-67
2023/10/15 09:35:39;;;;;;;6.82;2.10;;;;;;;12.78;100.00;100152.87;5589328;31;34398;-67
2023/10/15 09:38:42;;;;;;;9.05;2.12;;;;;;;12.88;100.00;100160.56;5589628;31;34769;-67
2023/10/15 09:41:46;;;;;;;9.30;2.37;;;;;;;13.16;100.00;100176.72;5575772;31;34310;-66
2023/10/15 09:44:49;;;;;;;7.80;2.42;;;;;;;13.24;100.00;100171.25;5589321;31;34483;-67
2023/10/15 09:47:57;;;;;;;6.20;1.80;;;;;;;12.96;100.00;100169.31;5589467;31;34374;-68
2023/10/15 09:51:02;;;;;;;5.47;1.90;;;;;;;13.13;100.00;100164.56;5575907;31;35218;-68
2023/10/15 09:54:07;;;;;;;8.07;2.03;;;;;;;13.22;100.00;100158.09;5589477;31;35015;-68
2023/10/15 09:57:13;;;;;;;7.30;1.67;;;;;;;13.18;100.00;100161.34;5575686;31;34518;-67
2023/10/15 10:00:19;;;;;;;8.73;2.00;;;;;;;13.24;100.00;100177.41;5589331;31;34450;-66
2023/10/15 10:03:49;;;;;;;5.25;1.67;;;;;;;13.02;100.00;100179.16;5589767;31;35079;-66
2023/10/15 10:06:55;;;;;;;7.22;1.77;;;;;;;13.06;100.00;100185.81;5589731;31;34971;-66
2023/10/15 10:10:41;;;;;;;15.93;7.43;;;;;;;13.02;100.00;100189.03;5589340;31;34340;-68
2023/10/15 10:13:56;;;;;;;9.00;2.17;;;;;;;13.06;100.00;100183.13;5575853;31;34489;-66
2023/10/15 10:17:00;;;;;;;6.18;1.98;;;;;;;13.13;100.00;100179.72;5588939;31;34328;-68
2023/10/15 10:20:11;;;;;;;6.82;1.60;;;;;;;13.14;100.00;100174.22;5589169;31;34262;-67
2023/10/15 10:23:14;;;;;;;6.90;1.90;;;;;;;13.06;96.09;100175.16;5589326;31;33912;-67
2023/10/15 10:26:27;;;;;;;6.18;1.80;;;;;;;13.08;99.01;100182.94;5576070;31;33525;-68
2023/10/15 10:29:34;;;;;;;6.90;1.75;;;;;;;12.98;100.00;100193.88;5588995;31;34504;-67
2023/10/15 10:32:37;;;;;;;6.70;1.85;;;;;;;13.07;99.75;100189.25;5589086;31;34531;-67
2023/10/15 10:35:43;;;;;;;9.43;1.92;;;;;;;12.98;100.00;100188.56;5575383;31;34316;-66
2023/10/15 10:39:00;;;;;;;8.57;1.90;;;;;;;12.99;100.00;100184.06;5589103;31;34314;-66
2023/10/15 10:42:03;;;;;;;4.57;1.73;;;;;;;13.12;100.00;100176.22;5589035;31;34250;-66
2023/10/15 10:45:12;;;;;;;9.80;2.10;;;;;;;13.14;100.00;100178.72;5589367;31;34325;-67
2023/10/15 10:48:20;;;;;;;5.65;1.80;;;;;;;12.99;99.78;100176.06;5588966;31;35271;-65
2023/10/15 10:51:30;;;;;;;8.07;2.03;;;;;;;12.99;96.50;100176.06;5589021;31;34261;-66
2023/10/15 10:54:36;;;;;;;6.60;1.90;;;;;;;13.08;100.00;100174.94;5575758;31;34336;-66
2023/10/15 10:57:42;;;;;;;7.32;2.15;;;;;;;12.94;97.64;100178.47;5589426;31;34968;-66
2023/10/15 11:00:45;;;;;;;8.95;1.67;;;;;;;12.95;98.73;100177.47;5589070;31;34258;-65
2023/10/15 11:03:48;;;;;;;6.07;1.90;;;;;;;13.09;100.00;100181.91;5589073;31;35051;-66
2023/10/15 11:06:51;;;;;;;7.75;2.17;;;;;;;13.07;99.32;100192.75;5589051;31;34136;-66
2023/10/15 11:10:00;;;;;;;10.00;2.47;;;;;;;13.19;100.00;100195.78;5575062;31;34989;-68
2023/10/15 11:13:04;;;;;;;8.15;2.40;;;;;;;13.21;99.78;100193.78;5588706;31;34252;-68
2023/10/15 11:16:06;;;;;;;8.75;2.17;;;;;;;13.10;100.00;100188.06;5589056;31;34175;-67
2023/10/15 11:19:23;;;;;;;7.68;2.37;;;;;;;13.21;100.00;100200.94;5562575;31;34248;-68
2023/10/15 11:22:26;;;;;;;7.30;2.35;;;;;;;13.29;100.00;100200.81;5574931;31;34988;-67
2023/10/15 11:25:29;;;;;;;8.82;2.25;;;;;;;13.16;100.00;100201.50;5588880;31;34458;-67
2023/10/15 11:28:34;;;;;;;8.13;2.55;;;;;;;13.29;100.00;100203.47;5588970;31;34245;-67
2023/10/15 11:31:42;;;;;;;9.70;2.22;;;;;;;13.33;100.00;100194.06;5588594;31;34237;-66
2023/10/15 11:34:45;;;;;;;7.90;2.22;;;;;;;13.23;100.00;100204.22;5574944;31;32712;-66
2023/10/15 11:37:50;;;;;;;7.53;2.15;;;;;;;13.11;100.00;100200.38;5588762;31;34882;-66
2023/10/15 11:40:54;;;;;;;5.75;1.90;;;;;;;12.86;100.00;100203.37;5588781;31;34130;-66
2023/10/15 11:44:06;;;;;;;9.55;2.33;;;;;;;12.92;100.00;100201.81;5588039;31;35125;-66
2023/10/15 11:47:16;;;;;;;8.18;2.33;;;;;;;12.97;100.00;100207.41;5588340;31;34160;-66
2023/10/15 11:50:25;;;;;;;9.52;2.70;;;;;;;12.84;100.00;100205.41;5574463;31;34134;-67
2023/10/15 11:53:28;;;;;;;8.00;2.30;;;;;;;13.00;100.00;100197.19;5588399;31;35173;-68
2023/10/15 11:56:31;;;;;;;10.48;2.40;;;;;;;13.19;100.00;100187.81;5588359;31;34240;-68
2023/10/15 11:59:38;;;;;;;10.05;2.22;;;;;;;13.13;100.00;100182.38;5588401;31;34194;-66
2023/10/15 12:02:41;;;;;;;8.13;2.33;;;;;;;13.24;100.00;100184.56;5588312;31;34132;-66
2023/10/15 12:05:45;;;;;;;9.75;2.22;;;;;;;13.25;100.00;100180.91;5587971;31;34484;-67
2023/10/15 12:08:48;;;;;;;10.70;2.40;;;;;;;13.24;100.00;100187.22;5588249;31;32598;-66
2023/10/15 12:11:51;;;;;;;9.50;2.22;;;;;;;13.39;100.00;100191.50;5588125;31;34121;-66
2023/10/15 12:14:54;;;;;;;8.70;2.33;;;;;;;13.18;100.00;100188.81;5587979;31;34144;-67
2023/10/15 12:17:57;;;;;;;8.80;2.45;;;;;;;13.22;100.00;100194.56;5587990;31;34844;-67
2023/10/15 12:21:00;;;;;;;9.15;2.62;;;;;;;13.05;100.00;100191.31;5588024;31;34240;-67
2023/10/15 12:24:15;;;;;;;9.32;2.35;;;;;;;13.07;100.00;100206.06;5574256;31;34075;-68
2023/10/15 12:27:18;;;;;;;9.77;2.40;;;;;;;13.05;100.00;100196.63;5574167;31;34270;-67
2023/10/15 12:30:27;;;;;;;7.78;2.12;;;;;;;13.18;100.00;100196.78;5573912;31;34191;-68
2023/10/15 12:33:33;;;;;;;9.57;2.10;;;;;;;13.25;100.00;100211.03;5587197;31;34421;-68
2023/10/15 12:36:38;;;;;;;8.15;2.05;;;;;;;13.23;100.00;100225.53;5574305;31;34109;-67
2023/10/15 12:39:40;;;;;;;7.55;2.00;;;;;;;12.98;94.41;100228.50;5587466;31;34027;-67
2023/10/15 12:42:44;;;;;;;8.32;2.08;;;;;;;12.97;87.71;100232.16;5587531;31;34104;-68
2023/10/15 12:45:52;;;;;;;6.75;1.92;;;;;;;13.00;88.82;100217.66;5587542;31;35226;-66
2023/10/15 12:48:56;;;;;;;7.93;2.05;;;;;;;13.11;84.86;100211.03;5587686;31;34714;-68
2023/10/15 12:51:59;;;;;;;9.40;2.22;;;;;;;13.07;85.18;100208.72;5587783;31;34424;-67
2023/10/15 12:55:04;;;;;;;8.18;1.77;;;;;;;13.07;86.28;100232.69;5587941;31;34890;-68
2023/10/15 12:58:09;;;;;;;7.28;1.83;;;;;;;13.06;83.83;100223.09;5576918;31;34777;-67
2023/10/15 13:01:13;;;;;;;5.45;2.00;;;;;;;12.96;86.65;100213.75;5590460;31;34203;-68
2023/10/15 13:04:17;;;;;;;8.10;2.20;;;;;;;13.16;83.06;100217.50;5563674;31;34096;-67
2023/10/15 13:07:20;;;;;;;11.05;1.92;;;;;;;12.94;84.60;100218.41;5590073;31;34073;-67
2023/10/15 13:10:24;;;;;;;7.97;1.70;;;;;;;12.86;87.56;100208.72;5590250;31;34403;-67
2023/10/15 13:13:27;;;;;;;8.75;2.08;;;;;;;12.84;86.24;100205.41;5589868;31;34226;-67
2023/10/15 13:16:29;;;;;;;8.75;1.75;;;;;;;12.98;90.01;100212.53;5576309;31;34114;-67
2023/10/15 13:19:32;;;;;;;6.85;1.73;;;;;;;12.92;86.45;100213.28;5590046;31;34105;-66
2023/10/15 13:22:35;;;;;;;6.30;1.90;;;;;;;12.84;84.98;100220.53;5590338;31;34803;-67
2023/10/15 13:25:38;;;;;;;7.55;1.73;;;;;;;12.84;86.47;100223.19;5590021;31;34226;-67
2023/10/15 13:28:43;;;;;;;7.45;1.87;;;;;;;12.81;86.97;100219.09;5589921;31;34083;-66
2023/10/15 13:31:46;;;;;;;7.65;2.10;;;;;;;13.11;86.06;100205.72;5576189;31;33624;-66
2023/10/15 13:34:49;;;;;;;6.37;1.73;;;;;;;13.12;86.69;100204.75;5590083;31;34139;-65
2023/10/15 13:37:53;;;;;;;7.12;1.83;;;;;;;12.92;82.03;100205.31;5589800;31;35950;-66
2023/10/15 13:40:56;;;;;;;6.07;1.83;;;;;;;12.73;81.33;100207.72;5576055;31;34052;-66
2023/10/15 13:43:59;;;;;;;6.28;1.60;;;;;;;12.69;80.62;100211.75;5576188;31;34870;-66
2023/10/15 13:47:05;;;;;;;8.05;2.10;;;;;;;12.66;81.94;100204.97;5589504;31;34308;-66
2023/10/15 13:50:12;;;;;;;8.50;2.30;;;;;;;12.51;80.56;100223.59;5589751;31;34701;-66
2023/10/15 13:53:15;;;;;;;4.87;1.80;;;;;;;12.61;82.02;100218.84;5589652;31;34174;-65
2023/10/15 13:56:19;;;;;;;6.45;1.70;;;;;;;12.57;81.40;100216.72;5589825;31;34765;-66
2023/10/15 13:59:23;;;;;;;6.35;1.92;;;;;;;12.55;83.59;100226.72;5590031;31;34175;-67
2023/10/15 14:02:27;;;;;;;8.73;2.00;;;;;;;12.50;83.50;100229.94;5589479;31;34135;-66
2023/10/15 14:05:32;;;;;;;5.22;1.50;;;;;;;12.40;82.37;100223.22;5588970;31;34061;-66
2023/10/15 14:08:35;;;;;;;6.15;1.70;;;;;;;12.34;84.73;100219.50;5589288;31;34157;-65
2023/10/15 14:11:39;;;;;;;6.30;1.80;;;;;;;12.29;85.48;100202.41;5589451;31;34910;-65
2023/10/15 14:14:42;;;;;;;7.07;2.00;;;;;;;12.26;85.50;100198.28;5588991;31;34161;-66
2023/10/15 14:17:45;;;;;;;13.27;1.98;;;;;;;12.20;85.85;100196.34;5575444;31;34808;-66
2023/10/15 14:20:49;;;;;;;5.85;1.80;;;;;;;12.12;86.09;100199.09;5589674;31;34893;-67
2023/10/15 14:23:52;;;;;;;10.02;2.30;;;;;;;12.18;90.18;100219.66;5589219;31;34335;-66
2023/10/15 14:26:54;;;;;;;8.65;1.98;;;;;;;12.12;89.40;100226.53;5589042;31;34113;-66
2023/10/15 14:29:57;;;;;;;8.32;1.92;;;;;;;12.10;87.93;100233.03;5588796;31;34073;-67
2023/10/15 14:33:01;;;;;;;8.10;2.00;;;;;;;12.08;89.94;100229.72;5588357;31;34087;-68